createdAt,value
2019-05-29T03:47:58.021Z,13.50
2019-05-29T03:50:36.046Z,13.40
2019-05-29T03:53:04.161Z,13.30
2019-05-29T03:55:33.833Z,13.30
2019-05-29T03:58:04.390Z,13.40
2019-05-29T04:00:41.316Z,13.50
2019-05-29T04:03:16.002Z,13.30
2019-05-29T04:05:45.557Z,13.30
2019-05-29T04:08:13.712Z,13.50
2019-05-29T04:11:12.331Z,13.70
2019-05-29T04:13:40.365Z,13.50
2019-05-29T04:16:09.942Z,13.40
2019-05-29T04:18:40.203Z,13.40
2019-05-29T04:21:10.623Z,13.70
2019-05-29T04:23:39.919Z,13.60
2019-05-29T04:26:09.723Z,13.70
2019-05-29T04:28:38.986Z,14.10
2019-05-29T04:31:10.308Z,14.00
2019-05-29T04:33:38.916Z,14.20
2019-05-29T04:36:07.167Z,14.50
2019-05-29T04:38:36.142Z,14.70
2019-05-29T04:41:05.075Z,14.70
2019-05-29T04:43:35.450Z,14.80
2019-05-29T04:46:03.839Z,14.90
2019-05-29T04:48:36.148Z,14.70
2019-05-29T04:51:55.848Z,14.80
2019-05-29T04:54:29.307Z,14.60
2019-05-29T04:57:16.945Z,13.80
2019-05-29T04:59:44.952Z,13.60
2019-05-29T05:02:13.012Z,13.50
2019-05-29T05:04:41.056Z,13.40
2019-05-29T05:07:09.040Z,13.50
2019-05-29T05:09:37.536Z,13.40
2019-05-29T05:12:05.590Z,13.60
2019-05-29T05:14:33.693Z,13.90
2019-05-29T05:17:01.814Z,14.20
2019-05-29T05:19:29.808Z,13.90
2019-05-29T05:21:57.849Z,14.10
2019-05-29T05:24:25.834Z,14.60
2019-05-29T05:26:53.816Z,15.00
2019-05-29T05:29:21.850Z,15.10
2019-05-29T05:31:49.857Z,15.20
2019-05-29T05:34:17.951Z,14.90
2019-05-29T05:36:46.032Z,14.50
2019-05-29T05:39:14.073Z,14.70
2019-05-29T05:41:42.129Z,14.70
2019-05-29T05:44:11.128Z,14.40
2019-05-29T05:46:39.251Z,14.20
2019-05-29T05:49:07.421Z,14.20
2019-05-29T05:51:38.245Z,14.40
2019-05-29T05:54:05.158Z,14.50
2019-05-29T05:56:33.695Z,14.50
2019-05-29T05:59:01.717Z,14.30
2019-05-29T06:01:29.698Z,14.40
2019-05-29T06:03:57.814Z,14.70
2019-05-29T06:06:28.172Z,14.90
2019-05-29T06:08:55.601Z,14.80
2019-05-29T06:11:23.670Z,14.70
2019-05-29T06:13:51.666Z,14.80
2019-05-29T06:16:19.664Z,14.80
2019-05-29T06:18:47.659Z,14.80
2019-05-29T06:21:15.805Z,14.90
2019-05-29T06:23:43.904Z,15.00
2019-05-29T06:26:11.962Z,14.70
2019-05-29T06:28:41.183Z,14.60
2019-05-29T06:31:09.329Z,14.40
2019-05-29T06:33:37.454Z,14.40
2019-05-29T06:36:05.448Z,14.40
2019-05-29T06:38:33.638Z,14.50
2019-05-29T06:41:01.720Z,14.40
2019-05-29T06:43:29.712Z,14.90
2019-05-29T06:45:57.769Z,14.90
2019-05-29T06:48:41.278Z,15.20
2019-05-29T06:50:57.726Z,15.20
2019-05-29T06:53:26.507Z,15.10
2019-05-29T06:55:56.317Z,14.90
2019-05-29T06:58:24.376Z,15.20
2019-05-29T07:00:58.654Z,15.40
2019-05-29T07:03:27.074Z,15.60
2019-05-29T07:05:55.089Z,15.80
2019-05-29T07:08:37.464Z,15.50
2019-05-29T07:10:52.913Z,15.40
2019-05-29T07:13:20.971Z,15.60
2019-05-29T07:15:49.038Z,15.90
2019-05-29T07:18:17.041Z,15.90
2019-05-29T07:20:45.017Z,15.60
2019-05-29T07:23:12.977Z,15.90
2019-05-29T07:25:40.991Z,16.30
2019-05-29T07:28:08.975Z,16.00
2019-05-29T07:30:37.347Z,15.90
2019-05-29T07:33:05.442Z,16.30
2019-05-29T07:35:33.449Z,16.50
2019-05-29T07:38:01.428Z,16.70
2019-05-29T07:40:29.461Z,16.40
2019-05-29T07:42:57.515Z,16.60
2019-05-29T07:45:25.524Z,16.60
2019-05-29T07:47:53.571Z,16.50
2019-05-29T07:50:21.562Z,16.40
2019-05-29T07:52:49.541Z,16.00
2019-05-29T07:55:17.616Z,15.80
2019-05-29T07:57:46.887Z,15.80
2019-05-29T08:00:15.349Z,15.50
2019-05-29T08:02:43.456Z,15.30
2019-05-29T08:05:11.652Z,15.10
2019-05-29T08:07:39.651Z,15.10
2019-05-29T08:10:08.120Z,15.50
2019-05-29T08:12:36.302Z,15.80
2019-05-29T08:15:05.343Z,15.40
2019-05-29T08:17:33.325Z,15.40
2019-05-29T08:20:07.169Z,15.40
2019-05-29T08:22:34.634Z,15.50
2019-05-29T08:25:00.790Z,15.50
2019-05-29T08:27:28.777Z,15.60
2019-05-29T08:29:56.873Z,15.70
2019-05-29T08:32:24.849Z,16.00
2019-05-29T08:34:52.858Z,16.10
2019-05-29T08:37:20.906Z,16.40
2019-05-29T08:39:49.567Z,16.50
2019-05-29T08:42:23.078Z,16.60
2019-05-29T08:44:47.532Z,16.50
2019-05-29T08:47:15.600Z,16.90
2019-05-29T08:49:44.030Z,16.90
2019-05-29T08:52:13.332Z,17.10
2019-05-29T08:54:42.058Z,17.30
2019-05-29T08:57:10.129Z,17.50
2019-05-29T08:59:38.164Z,17.40
2019-05-29T09:02:06.167Z,17.50
2019-05-29T09:04:34.227Z,17.00
2019-05-29T09:07:02.213Z,17.00
2019-05-29T09:09:30.206Z,16.90
2019-05-29T09:11:58.222Z,16.70
2019-05-29T09:14:26.238Z,16.90
2019-05-29T09:16:54.359Z,17.00
2019-05-29T09:19:22.872Z,17.20
2019-05-29T09:21:51.044Z,17.50
2019-05-29T09:24:19.371Z,17.60
2019-05-29T09:26:47.506Z,17.40
2019-05-29T09:29:18.696Z,17.40
2019-05-29T09:31:45.223Z,17.20
2019-05-29T09:34:13.900Z,17.50
2019-05-29T09:36:42.999Z,17.70
2019-05-29T09:39:11.051Z,17.70
2019-05-29T09:41:39.056Z,17.60
2019-05-29T09:44:07.102Z,17.80
2019-05-29T09:46:35.102Z,17.60
2019-05-29T09:49:03.165Z,17.80
2019-05-29T09:51:31.208Z,17.90
2019-05-29T09:53:59.911Z,17.90
2019-05-29T09:56:28.949Z,18.10
2019-05-29T09:58:58.488Z,18.30
2019-05-29T10:01:26.731Z,18.30
2019-05-29T10:03:56.389Z,18.10
2019-05-29T10:06:24.410Z,18.10
2019-05-29T10:08:54.873Z,18.40
2019-05-29T10:11:23.594Z,18.30
2019-05-29T10:13:51.635Z,18.50
2019-05-29T10:16:19.700Z,18.60
2019-05-29T10:18:47.677Z,18.90
2019-05-29T10:21:15.684Z,19.00
2019-05-29T10:23:43.664Z,19.20
2019-05-29T10:26:12.701Z,19.30
2019-05-29T10:28:55.594Z,19.10
2019-05-29T10:31:10.544Z,18.80
2019-05-29T10:33:38.601Z,18.50
2019-05-29T10:36:06.670Z,18.20
2019-05-29T10:38:34.668Z,18.10
2019-05-29T10:41:06.612Z,17.90
2019-05-29T10:43:34.620Z,18.10
2019-05-29T10:46:02.139Z,18.40
2019-05-29T10:48:30.176Z,18.60
2019-05-29T10:50:58.214Z,18.70
2019-05-29T10:53:26.229Z,18.90
2019-05-29T10:55:54.953Z,18.60
2019-05-29T10:58:23.151Z,18.40
2019-05-29T11:00:51.327Z,18.40
2019-05-29T11:03:19.471Z,18.30
2019-05-29T11:05:47.549Z,18.10
2019-05-29T11:08:15.738Z,17.90
2019-05-29T11:10:43.736Z,17.70
2019-05-29T11:13:11.705Z,17.50
2019-05-29T11:15:39.689Z,17.30
2019-05-29T11:18:07.669Z,17.40
2019-05-29T11:20:35.670Z,17.30
2019-05-29T11:23:03.750Z,17.50
2019-05-29T11:25:31.732Z,17.70
2019-05-29T11:27:59.724Z,17.90
2019-05-29T11:30:27.718Z,18.00
2019-05-29T11:32:57.275Z,18.40
2019-05-29T11:35:25.472Z,18.40
2019-05-29T11:37:54.623Z,18.50
2019-05-29T11:40:22.915Z,18.50
2019-05-29T11:42:50.967Z,18.40
2019-05-29T11:45:19.418Z,18.70
2019-05-29T11:47:47.429Z,18.50
2019-05-29T11:50:19.867Z,18.70
2019-05-29T11:52:46.290Z,18.70
2019-05-29T11:55:14.518Z,18.90
2019-05-29T11:57:42.578Z,18.90
2019-05-29T12:00:19.486Z,18.90
2019-05-29T12:02:41.539Z,18.90
2019-05-29T12:05:09.922Z,18.90
2019-05-29T12:07:38.001Z,18.80
2019-05-29T12:10:07.177Z,18.60
2019-05-29T12:12:35.879Z,18.20
2019-05-29T12:15:13.588Z,18.30
2019-05-29T12:17:38.104Z,18.50
2019-05-29T12:20:26.544Z,18.60
2019-05-29T12:22:36.604Z,18.20
2019-05-29T12:25:05.308Z,18.20
2019-05-29T12:27:33.303Z,17.90
2019-05-29T12:30:01.417Z,18.10
2019-05-29T12:32:29.411Z,18.20
2019-05-29T12:34:58.570Z,18.30
2019-05-29T12:37:27.095Z,18.70
2019-05-29T12:39:55.434Z,18.90
2019-05-29T12:42:23.510Z,19.00
2019-05-29T12:44:51.526Z,19.00
2019-05-29T12:47:19.566Z,18.90
2019-05-29T12:49:47.560Z,18.30
2019-05-29T12:52:15.547Z,18.00
2019-05-29T12:54:43.528Z,17.80
2019-05-29T12:57:11.529Z,17.80
2019-05-29T12:59:41.241Z,17.80
2019-05-29T13:02:09.665Z,17.90
2019-05-29T13:05:05.997Z,18.00
2019-05-29T13:07:07.482Z,17.90
2019-05-29T13:09:35.557Z,18.10
2019-05-29T13:12:04.787Z,18.10
2019-05-29T13:14:32.870Z,18.30
2019-05-29T13:17:00.917Z,18.10
2019-05-29T13:19:28.950Z,17.90
2019-05-29T13:21:57.346Z,17.60
2019-05-29T13:24:25.432Z,17.60
2019-05-29T13:26:53.484Z,17.70
2019-05-29T13:29:21.482Z,17.90
2019-05-29T13:31:49.492Z,18.00
2019-05-29T13:34:17.563Z,17.90
2019-05-29T13:36:45.634Z,17.90
2019-05-29T13:39:13.697Z,17.90
2019-05-29T13:41:41.819Z,18.30
2019-05-29T13:44:09.811Z,18.30
2019-05-29T13:46:37.798Z,18.40
2019-05-29T13:49:07.020Z,18.30
2019-05-29T13:51:35.255Z,18.70
2019-05-29T13:54:11.015Z,18.80
2019-05-29T13:56:33.012Z,18.80
2019-05-29T13:59:02.043Z,18.80
2019-05-29T14:01:30.189Z,18.90
2019-05-29T14:03:58.210Z,18.80
2019-05-29T14:06:26.239Z,18.70
2019-05-29T14:08:54.318Z,18.60
2019-05-29T14:11:22.336Z,18.70
2019-05-29T14:13:50.329Z,18.90
2019-05-29T14:16:18.393Z,19.00
2019-05-29T14:18:46.629Z,18.80
2019-05-29T14:21:14.657Z,18.50
2019-05-29T14:23:42.641Z,18.40
2019-05-29T14:26:10.750Z,18.40
2019-05-29T14:28:38.836Z,18.10
2019-05-29T14:31:08.389Z,18.30
2019-05-29T14:33:36.620Z,18.60
2019-05-29T14:36:06.005Z,18.50
2019-05-29T14:38:34.468Z,18.60
2019-05-29T14:41:03.589Z,18.60
2019-05-29T14:43:31.920Z,18.70
2019-05-29T14:46:00.205Z,19.00
2019-05-29T14:48:28.190Z,18.90
2019-05-29T14:50:56.187Z,19.00
2019-05-29T14:53:24.270Z,19.20
2019-05-29T14:55:52.320Z,19.40
2019-05-29T14:58:20.367Z,19.30
2019-05-29T15:00:48.421Z,19.00
2019-05-29T15:03:16.485Z,19.00
2019-05-29T15:05:44.753Z,19.10
2019-05-29T15:08:13.989Z,19.30
2019-05-29T15:10:43.864Z,19.40
2019-05-29T15:13:13.392Z,19.40
2019-05-29T15:15:41.642Z,19.40
2019-05-29T15:18:14.632Z,19.60
2019-05-29T15:20:39.327Z,19.60
2019-05-29T15:23:07.611Z,19.40
2019-05-29T15:25:35.747Z,19.00
2019-05-29T15:28:03.838Z,19.30
2019-05-29T15:30:31.827Z,19.60
2019-05-29T15:32:59.892Z,19.70
2019-05-29T15:35:28.104Z,19.70
2019-05-29T15:37:56.128Z,19.90
2019-05-29T15:40:24.127Z,19.90
2019-05-29T15:42:52.106Z,19.70
2019-05-29T15:45:20.361Z,19.70
2019-05-29T15:47:48.569Z,19.80
2019-05-29T15:50:17.974Z,19.80
2019-05-29T15:52:46.231Z,19.80
2019-05-29T15:55:31.855Z,19.80
2019-05-29T15:57:44.098Z,19.60
2019-05-29T16:00:13.619Z,19.70
2019-05-29T16:02:41.922Z,19.80
2019-05-29T16:05:11.178Z,19.80
2019-05-29T16:07:39.456Z,19.70
2019-05-29T16:10:08.219Z,19.80
2019-05-29T16:12:36.338Z,19.80
2019-05-29T16:15:05.761Z,19.70
2019-05-29T16:17:33.773Z,19.70
2019-05-29T16:20:02.102Z,19.80
2019-05-29T16:22:30.170Z,19.90
2019-05-29T16:25:01.122Z,19.80
2019-05-29T16:27:31.057Z,19.90
2019-05-29T16:29:59.020Z,20.00
2019-05-29T16:32:27.049Z,19.90
2019-05-29T16:34:55.043Z,19.80
2019-05-29T16:37:23.155Z,19.70
2019-05-29T16:39:51.145Z,19.60
2019-05-29T16:42:20.492Z,19.30
2019-05-29T16:44:48.675Z,19.20
2019-05-29T16:47:16.753Z,19.30
2019-05-29T16:49:44.882Z,19.40
2019-05-29T16:52:13.011Z,19.30
2019-05-29T16:54:41.432Z,19.20
2019-05-29T16:57:09.836Z,19.30
2019-05-29T16:59:37.865Z,19.40
2019-05-29T17:02:05.866Z,19.70
2019-05-29T17:04:33.961Z,19.50
2019-05-29T17:07:02.018Z,19.60
2019-05-29T17:09:30.042Z,19.70
2019-05-29T17:11:58.049Z,19.70
2019-05-29T17:14:26.098Z,19.90
2019-05-29T17:16:54.321Z,20.00
2019-05-29T17:19:23.055Z,19.90
2019-05-29T17:21:51.345Z,19.90
2019-05-29T17:24:19.320Z,19.80
2019-05-29T17:26:47.433Z,19.90
2019-05-29T17:29:16.769Z,20.00
2019-05-29T17:31:44.965Z,19.80
2019-05-29T17:34:13.017Z,19.80
2019-05-29T17:36:41.029Z,19.60
2019-05-29T17:39:09.071Z,19.80
2019-05-29T17:41:37.054Z,19.40
2019-05-29T17:44:05.163Z,19.30
2019-05-29T17:46:33.301Z,19.20
2019-05-29T17:49:01.363Z,19.10
2019-05-29T17:51:29.438Z,18.80
2019-05-29T17:53:57.511Z,18.50
2019-05-29T17:56:36.005Z,18.40
2019-05-29T17:58:55.207Z,18.40
2019-05-29T18:01:24.264Z,18.60
2019-05-29T18:03:52.486Z,18.60
2019-05-29T18:06:20.542Z,18.70
2019-05-29T18:08:48.535Z,18.60
2019-05-29T18:11:16.912Z,18.10
2019-05-29T18:13:44.993Z,17.90
2019-05-29T18:16:12.978Z,18.00
2019-05-29T18:18:41.017Z,18.10
2019-05-29T18:21:09.070Z,17.90
2019-05-29T18:23:37.059Z,17.80
2019-05-29T18:26:05.045Z,17.90
2019-05-29T18:28:33.215Z,17.60
2019-05-29T18:31:01.265Z,17.50
2019-05-29T18:33:29.364Z,17.30
2019-05-29T18:35:57.400Z,17.20
2019-05-29T18:38:26.491Z,16.90
2019-05-29T18:40:54.729Z,17.10
2019-05-29T18:43:22.759Z,17.30
2019-05-29T18:45:50.745Z,17.20
2019-05-29T18:48:18.745Z,17.20
2019-05-29T18:50:46.733Z,16.90
2019-05-29T18:53:14.742Z,17.00
2019-05-29T18:55:42.732Z,17.10
2019-05-29T18:58:10.761Z,17.00
2019-05-29T19:00:38.781Z,17.10
2019-05-29T19:03:06.886Z,17.00
2019-05-29T19:05:34.881Z,17.00
2019-05-29T19:08:03.785Z,17.00
2019-05-29T19:10:31.995Z,16.90
2019-05-29T19:13:00.050Z,16.90
2019-05-29T19:15:28.179Z,17.40
2019-05-29T19:17:56.265Z,17.10
2019-05-29T19:20:24.358Z,17.10
2019-05-29T19:22:52.553Z,16.80
2019-05-29T19:25:20.809Z,16.70
2019-05-29T19:27:48.882Z,16.70
2019-05-29T19:30:17.499Z,16.60
2019-05-29T19:32:45.534Z,16.50
2019-05-29T19:35:13.703Z,16.40
2019-05-29T19:37:41.737Z,16.50
2019-05-29T19:40:10.234Z,16.80
2019-05-29T19:42:38.309Z,17.10
2019-05-29T19:45:06.914Z,17.00
2019-05-29T19:47:35.025Z,16.90
2019-05-29T19:50:04.223Z,16.90
2019-05-29T19:52:33.281Z,17.10
2019-05-29T19:55:01.349Z,17.10
2019-05-29T19:57:29.880Z,17.40
2019-05-29T19:59:59.259Z,17.60
2019-05-29T20:02:28.385Z,17.50
2019-05-29T20:04:56.501Z,17.70
2019-05-29T20:07:24.516Z,17.40
2019-05-29T20:09:52.625Z,16.90
2019-05-29T20:12:20.755Z,16.90
2019-05-29T20:14:48.939Z,16.60
2019-05-29T20:17:17.325Z,16.40
2019-05-29T20:19:45.351Z,16.40
2019-05-29T20:22:13.428Z,16.40
2019-05-29T20:24:41.653Z,16.10
2019-05-29T20:27:09.638Z,16.20
2019-05-29T20:29:38.529Z,16.30
2019-05-29T20:32:06.739Z,16.20
2019-05-29T20:34:34.827Z,16.10
2019-05-29T20:37:02.991Z,16.00
2019-05-29T20:39:32.825Z,16.00
2019-05-29T20:42:00.915Z,16.20
2019-05-29T20:44:28.922Z,16.10
2019-05-29T20:46:56.986Z,15.90
2019-05-29T20:49:24.974Z,15.80
2019-05-29T20:51:53.012Z,16.00
2019-05-29T20:54:21.013Z,15.90
2019-05-29T20:56:49.076Z,15.80
2019-05-29T20:59:17.076Z,15.80
2019-05-29T21:01:47.355Z,15.70
2019-05-29T21:04:14.824Z,15.60
2019-05-29T21:06:42.877Z,15.60
2019-05-29T21:09:10.898Z,15.40
2019-05-29T21:11:39.522Z,15.60
2019-05-29T21:14:07.689Z,15.80
2019-05-29T21:16:35.693Z,15.60
2019-05-29T21:19:03.755Z,15.50
2019-05-29T21:21:31.833Z,15.30
2019-05-29T21:23:59.893Z,15.60
2019-05-29T21:26:27.961Z,15.30
2019-05-29T21:28:56.033Z,15.00
2019-05-29T21:31:24.049Z,15.10
2019-05-29T21:33:52.119Z,15.50
2019-05-29T21:36:20.182Z,15.30
2019-05-29T21:38:48.321Z,15.10
2019-05-29T21:41:16.314Z,15.10
2019-05-29T21:43:44.789Z,15.10
2019-05-29T21:46:12.927Z,15.30
2019-05-29T21:48:41.262Z,15.30
2019-05-29T21:51:09.405Z,15.00
2019-05-29T21:53:37.475Z,14.90
2019-05-29T21:56:05.527Z,14.90
2019-05-29T21:58:33.505Z,14.70
2019-05-29T22:01:01.582Z,14.70
2019-05-29T22:03:29.678Z,14.50
2019-05-29T22:05:57.769Z,14.50
2019-05-29T22:08:25.796Z,14.50
2019-05-29T22:10:53.923Z,14.40
2019-05-29T22:13:21.950Z,14.30
2019-05-29T22:15:50.616Z,14.30
2019-05-29T22:18:18.817Z,14.30
2019-05-29T22:20:46.794Z,14.30
2019-05-29T22:23:14.853Z,14.40
2019-05-29T22:25:42.846Z,14.50
2019-05-29T22:28:10.925Z,14.50
2019-05-29T22:30:38.952Z,14.50
2019-05-29T22:33:06.979Z,14.60
2019-05-29T22:35:35.021Z,14.60
2019-05-29T22:38:03.088Z,14.60
2019-05-29T22:40:31.164Z,14.80
2019-05-29T22:42:59.874Z,14.50
2019-05-29T22:45:28.019Z,14.50
2019-05-29T22:47:56.091Z,14.30
2019-05-29T22:50:24.165Z,14.30
2019-05-29T22:52:52.247Z,14.10
2019-05-29T22:55:20.300Z,14.00
2019-05-29T22:57:48.317Z,14.00
